Time;durP1;ratioP1;P1;durP2;ratioP2;P2;SDS_P1;SDS_P2;PMS_P1;PMS_P2;Temp;Humidity;BMP_temperature;BMP_pressure;BME280_temperature;BME280_humidity;BME280_pressure;Samples;Min_cycle;Max_cycle;Signal;HPM_P1;HPM_P2
2022/06/22 00:01:19;;;;;;;;;;;;;;;29.04;70.61;100713.56;5019845;28;68647;-34
2022/06/22 00:03:56;;;;;;;46.88;27.88;;;;;;;29.36;70.84;100709.94;5016569;28;66748;-33
2022/06/22 00:06:36;;;;;;;59.13;32.30;;;;;;;29.34;72.94;100708.50;5014046;28;69602;-34
2022/06/22 00:09:07;;;;;;;50.90;33.42;;;;;;;29.47;68.91;100710.28;5016849;28;65205;-34
2022/06/22 00:11:44;;;;;;;52.83;31.38;;;;;;;29.08;73.55;100649.97;5018641;28;69154;-37
2022/06/22 00:14:20;;;;;;;51.22;31.48;;;;;;;29.16;73.17;100663.25;5018121;28;65208;-34
2022/06/22 00:16:54;;;;;;;49.63;30.33;;;;;;;29.55;72.76;100718.16;5016495;28;70279;-34
2022/06/22 00:19:39;;;;;;;45.05;28.85;;;;;;;29.16;73.28;100655.13;5019542;28;66064;-35
2022/06/22 00:22:20;;;;;;;42.35;28.92;;;;;;;29.22;73.40;100662.38;5015029;28;69337;-34
2022/06/22 00:25:19;;;;;;;43.30;28.10;;;;;;;29.33;73.32;100671.69;5018125;28;65993;-34
2022/06/22 00:27:51;;;;;;;45.53;27.35;;;;;;;29.73;73.36;100734.53;5016834;28;69548;-33
2022/06/22 00:30:31;;;;;;;45.47;26.70;;;;;;;29.71;73.04;100735.78;5017955;28;65969;-34
2022/06/22 00:33:21;;;;;;;39.20;25.67;;;;;;;29.44;73.94;100683.69;5013171;28;69491;-33
2022/06/22 00:35:56;;;;;;;54.78;25.02;;;;;;;29.81;73.04;100736.13;5017183;28;65815;-34
2022/06/22 00:38:32;;;;;;;32.75;22.55;;;;;;;29.33;73.79;100656.31;5014272;28;70187;-33
2022/06/22 00:41:13;;;;;;;42.40;23.33;;;;;;;29.89;73.98;100753.97;5018052;28;66469;-34
2022/06/22 00:43:44;;;;;;;45.00;21.60;;;;;;;29.92;73.19;100743.59;5007341;28;69470;-34
2022/06/22 00:46:19;;;;;;;45.57;19.50;;;;;;;29.93;69.94;100733.59;5012450;28;65746;-34
2022/06/22 00:48:53;;;;;;;24.88;17.05;;;;;;;29.85;69.51;100707.63;5018073;28;70381;-34
2022/06/22 00:51:38;;;;;;;30.83;17.25;;;;;;;30.13;69.73;100760.50;5011373;28;66535;-34
2022/06/22 00:54:18;;;;;;;21.30;16.13;;;;;;;30.21;68.53;100746.72;5013333;28;70388;-34
2022/06/22 00:56:54;;;;;;;22.80;15.57;;;;;;;30.34;67.75;100762.03;5006355;28;66197;-34
2022/06/22 00:59:38;;;;;;;20.35;15.23;;;;;;;30.37;68.15;100765.16;5015460;28;70184;-34
2022/06/22 01:02:41;;;;;;;19.52;14.70;;;;;;;30.31;68.59;100767.91;5010936;28;65417;-34
2022/06/22 01:05:27;;;;;;;18.02;15.05;;;;;;;30.50;67.72;100777.75;5010310;28;69981;-35
2022/06/22 01:08:25;;;;;;;22.75;14.68;;;;;;;30.41;68.33;100774.50;5012147;28;66705;-34
2022/06/22 01:11:01;;;;;;;19.25;14.15;;;;;;;30.50;66.83;100764.22;5006031;28;70314;-35
2022/06/22 01:13:35;;;;;;;20.98;14.82;;;;;;;30.65;66.39;100780.16;5017516;28;65730;-35
2022/06/22 01:16:16;;;;;;;18.25;13.77;;;;;;;30.66;66.55;100781.78;5016721;28;69302;-35
2022/06/22 01:19:00;;;;;;;15.10;12.75;;;;;;;30.68;66.69;100794.06;5011082;28;66401;-35
2022/06/22 01:21:41;;;;;;;16.27;12.88;;;;;;;30.73;66.32;100794.22;5019955;28;70549;-34
2022/06/22 01:24:39;;;;;;;14.70;12.43;;;;;;;30.70;66.78;100805.50;5013711;28;65479;-34
2022/06/22 01:27:32;;;;;;;13.32;12.00;;;;;;;30.72;66.72;100803.38;5010999;28;70156;-35
2022/06/22 01:30:34;;;;;;;18.25;12.77;;;;;;;30.49;66.75;100759.84;5014820;28;66796;-35
2022/06/22 01:33:15;;;;;;;13.00;11.70;;;;;;;30.56;66.52;100762.50;5013167;28;70981;-35
2022/06/22 01:35:50;;;;;;;12.95;11.30;;;;;;;30.91;65.46;100817.03;5010132;28;66676;-36
2022/06/22 01:38:25;;;;;;;16.02;11.27;;;;;;;30.70;65.69;100778.44;5017591;28;71125;-35
2022/06/22 01:41:27;;;;;;;12.93;11.60;;;;;;;30.92;65.58;100830.34;5006124;28;65352;-35
2022/06/22 01:44:02;;;;;;;12.02;10.75;;;;;;;31.02;65.30;100827.13;5005197;28;70355;-35
2022/06/22 01:47:10;;;;;;;14.45;10.82;;;;;;;30.96;65.48;100833.44;5015041;28;66275;-34
2022/06/22 01:50:02;;;;;;;13.40;10.23;;;;;;;30.66;65.94;100782.63;5012531;28;69669;-34
2022/06/22 01:52:58;;;;;;;13.80;10.45;;;;;;;31.02;65.33;100845.25;5012329;28;66132;-34
2022/06/22 01:55:37;;;;;;;10.65;9.32;;;;;;;31.14;64.67;100838.06;5007254;28;69937;-35
2022/06/22 01:58:20;;;;;;;10.25;9.35;;;;;;;31.10;64.70;100840.38;5016154;28;65541;-34
2022/06/22 02:01:01;;;;;;;10.15;8.85;;;;;;;30.89;64.58;100797.44;5009972;28;69617;-34
2022/06/22 02:03:41;;;;;;;10.57;8.93;;;;;;;30.95;64.43;100812.78;5011276;28;66240;-34
2022/06/22 02:09:22;;;;;;;9.73;8.30;;;;;;;31.28;64.33;100860.44;5013845;28;66447;-36
2022/06/22 02:12:18;;;;;;;8.90;8.00;;;;;;;30.98;63.69;100809.69;5019567;28;70165;-35
2022/06/22 02:14:51;;;;;;;9.57;8.60;;;;;;;31.01;63.48;100809.22;5012386;28;66995;-35
2022/06/22 02:17:26;;;;;;;9.38;8.57;;;;;;;31.35;63.73;100855.78;5001618;28;68994;-34
2022/06/22 02:20:15;;;;;;;9.13;8.32;;;;;;;31.28;63.56;100849.59;5012506;28;64957;-34
2022/06/22 02:22:50;;;;;;;8.60;7.85;;;;;;;31.08;63.20;100807.25;5016746;28;70104;-35
2022/06/22 02:25:23;;;;;;;9.63;8.82;;;;;;;31.41;63.02;100854.91;5007785;28;66865;-34
2022/06/22 02:27:55;;;;;;;9.35;8.45;;;;;;;31.42;63.15;100855.75;5013287;28;70499;-35
2022/06/22 02:30:26;;;;;;;9.25;8.35;;;;;;;31.40;63.08;100853.28;5017238;28;66208;-34
2022/06/22 02:32:57;;;;;;;8.25;7.70;;;;;;;31.50;63.15;100869.81;5012079;28;69511;-35
2022/06/22 02:35:28;;;;;;;9.50;8.48;;;;;;;31.49;63.07;100862.75;5018584;28;66025;-34
2022/06/22 02:38:06;;;;;;;8.57;7.80;;;;;;;31.24;62.83;100818.59;5012759;28;70056;-34
2022/06/22 02:46:39;;;;;;;11.25;8.02;;;;;;;31.33;62.55;100809.09;5017962;28;65805;-34
2022/06/22 02:49:28;;;;;;;8.43;7.68;;;;;;;31.32;62.48;100819.13;5003619;28;70110;-34
2022/06/22 02:52:02;;;;;;;7.28;6.68;;;;;;;31.71;62.03;100871.28;5006175;28;66374;-34
2022/06/22 02:54:39;;;;;;;8.75;7.00;;;;;;;31.44;62.07;100815.69;5015919;28;70541;-36
2022/06/22 02:57:27;;;;;;;7.32;6.82;;;;;;;31.75;62.07;100866.22;5015037;28;66228;-34
2022/06/22 03:00:00;;;;;;;6.07;5.68;;;;;;;31.78;62.04;100865.75;5003009;28;69608;-36
2022/06/22 03:02:31;;;;;;;7.07;6.57;;;;;;;31.77;61.81;100855.97;5014944;28;65268;-36
2022/06/22 03:05:05;;;;;;;7.35;6.68;;;;;;;31.82;62.07;100866.97;5018154;28;69616;-34
2022/06/22 03:07:40;;;;;;;7.20;6.60;;;;;;;31.88;61.57;100866.06;5003220;28;66755;-36
2022/06/22 03:10:26;;;;;;;7.00;6.40;;;;;;;31.81;61.62;100863.41;5015808;28;69963;-35
2022/06/22 03:12:59;;;;;;;6.63;6.07;;;;;;;31.90;61.38;100858.53;5006104;28;66117;-34
2022/06/22 03:15:35;;;;;;;6.40;6.00;;;;;;;31.62;61.41;100807.53;5011585;28;70318;-35
2022/06/22 03:18:11;;;;;;;6.50;6.00;;;;;;;31.89;61.56;100848.72;4991646;28;65608;-36
2022/06/22 03:20:53;;;;;;;6.30;5.70;;;;;;;31.96;61.01;100856.81;5025017;28;70517;-35
2022/06/22 03:23:33;;;;;;;6.33;5.93;;;;;;;31.95;61.40;100845.13;5014793;28;66381;-36
2022/06/22 03:26:18;;;;;;;6.72;6.13;;;;;;;31.99;61.30;100846.34;5018393;28;70145;-34
2022/06/22 03:29:02;;;;;;;6.20;5.70;;;;;;;31.76;60.85;100813.63;5016781;28;66563;-37
2022/06/22 03:31:42;;;;;;;5.90;5.50;;;;;;;32.07;60.59;100844.34;5017169;28;70220;-38
2022/06/22 03:34:37;;;;;;;5.78;5.38;;;;;;;32.07;60.65;100836.22;5022511;28;65810;-35
2022/06/22 03:37:32;;;;;;;6.60;6.20;;;;;;;31.94;60.82;100813.63;5021211;28;69918;-35
2022/06/22 03:40:16;;;;;;;6.50;6.00;;;;;;;32.01;60.54;100822.53;5005093;28;65691;-34
2022/06/22 03:42:54;;;;;;;6.22;5.72;;;;;;;31.57;60.73;100736.91;5014814;28;68805;-35
2022/06/22 03:45:31;;;;;;;6.10;5.60;;;;;;;31.97;60.64;100798.78;5012149;28;66208;-35
2022/06/22 03:48:11;;;;;;;6.13;5.65;;;;;;;31.86;60.35;100766.97;5011539;28;70612;-35
2022/06/22 03:50:55;;;;;;;5.53;5.13;;;;;;;32.15;60.17;100812.31;4993747;28;65703;-34
2022/06/22 03:53:41;;;;;;;6.20;5.80;;;;;;;32.22;60.31;100802.16;5010854;28;69417;-35
2022/06/22 03:56:20;;;;;;;5.95;5.55;;;;;;;32.18;60.62;100792.00;5008765;28;66175;-35
2022/06/22 03:58:53;;;;;;;5.93;5.47;;;;;;;32.26;60.48;100794.38;5004200;28;69775;-34
2022/06/22 04:01:24;;;;;;;6.07;5.57;;;;;;;32.25;60.54;100793.56;5018044;28;65352;-34
2022/06/22 04:03:57;;;;;;;6.22;5.68;;;;;;;32.27;60.59;100804.19;5010125;28;70029;-35
2022/06/22 04:06:38;;;;;;;6.60;4.95;;;;;;;32.29;60.20;100793.94;5013626;28;66776;-35
2022/06/22 04:09:18;;;;;;;5.43;4.93;;;;;;;31.97;60.36;100745.34;5013620;28;70096;-35
2022/06/22 04:12:01;;;;;;;10.55;5.55;;;;;;;32.28;60.15;100784.13;5010911;28;66399;-35
2022/06/22 04:14:56;;;;;;;5.72;5.28;;;;;;;32.15;60.18;100759.91;5013997;28;70685;-34
2022/06/22 04:17:36;;;;;;;5.93;5.25;;;;;;;32.34;60.32;100775.06;5020132;28;66163;-35
2022/06/22 04:20:20;;;;;;;5.43;5.03;;;;;;;32.29;60.17;100761.38;5016270;28;69506;-35
2022/06/22 04:22:56;;;;;;;5.50;4.95;;;;;;;32.05;60.05;100707.03;5015544;28;65492;-34
2022/06/22 04:25:32;;;;;;;5.65;5.03;;;;;;;32.40;60.01;100752.44;5012315;28;70570;-34
2022/06/22 04:28:09;;;;;;;5.40;4.80;;;;;;;32.41;60.02;100754.06;5014451;28;66611;-35
2022/06/22 04:30:48;;;;;;;5.32;4.82;;;;;;;32.39;59.87;100745.31;5018261;28;70369;-36
2022/06/22 04:33:26;;;;;;;5.45;4.97;;;;;;;32.33;59.91;100727.25;5014731;28;65220;-35
2022/06/22 04:36:12;;;;;;;5.10;4.80;;;;;;;32.43;59.74;100738.38;5012470;28;70468;-34
2022/06/22 04:38:55;;;;;;;5.22;4.93;;;;;;;32.12;59.75;100697.97;5012514;28;66386;-36
2022/06/22 04:41:39;;;;;;;5.53;5.13;;;;;;;32.49;59.76;100750.22;5018780;28;70082;-37
2022/06/22 04:44:24;;;;;;;5.40;5.00;;;;;;;32.46;59.59;100748.81;5009336;28;66215;-35
2022/06/22 04:47:10;;;;;;;5.35;4.85;;;;;;;32.15;59.71;100670.34;5016237;28;70213;-35
2022/06/22 04:50:10;;;;;;;4.68;4.38;;;;;;;32.37;59.68;100736.56;5002704;28;66266;-35
2022/06/22 04:52:44;;;;;;;5.28;4.88;;;;;;;32.48;59.75;100713.25;5011202;28;70027;-36
2022/06/22 04:55:20;;;;;;;4.88;4.57;;;;;;;32.00;59.42;100636.34;5017768;28;65823;-35
2022/06/22 04:57:57;;;;;;;5.40;5.00;;;;;;;32.55;59.25;100718.59;5015275;28;70433;-37
2022/06/22 05:00:34;;;;;;;4.97;4.50;;;;;;;32.30;59.48;100662.59;5009344;28;67061;-35
2022/06/22 05:03:12;;;;;;;4.65;4.35;;;;;;;32.55;59.38;100702.28;5013622;28;70354;-34
2022/06/22 05:05:43;;;;;;;5.43;4.85;;;;;;;32.60;59.45;100699.69;5008963;28;66254;-34
2022/06/22 05:08:26;;;;;;;4.70;4.40;;;;;;;32.58;59.04;100701.81;5011953;28;70081;-35
2022/06/22 05:11:06;;;;;;;4.63;4.32;;;;;;;32.70;59.03;100710.78;5003889;28;66707;-35
2022/06/22 05:13:43;;;;;;;4.32;4.05;;;;;;;32.73;58.72;100694.00;5014447;28;70061;-34
2022/06/22 05:16:22;;;;;;;4.53;4.22;;;;;;;32.76;58.88;100693.53;5008681;28;66288;-36
2022/06/22 05:18:56;;;;;;;4.40;4.10;;;;;;;32.78;59.38;100691.41;5019609;28;70088;-35
2022/06/22 05:21:37;;;;;;;4.22;3.92;;;;;;;32.47;58.87;100630.97;5009143;28;66075;-35
2022/06/22 05:24:11;;;;;;;3.95;3.75;;;;;;;32.52;58.74;100621.31;5014892;28;68904;-36
2022/06/22 05:26:42;;;;;;;4.18;3.88;;;;;;;32.86;58.76;100666.59;5011073;28;66583;-34
2022/06/22 05:29:19;;;;;;;4.00;3.70;;;;;;;32.89;58.68;100657.97;5012627;28;69314;-37
2022/06/22 05:31:58;;;;;;;4.40;4.10;;;;;;;32.55;58.53;100588.25;5003318;28;66358;-36
2022/06/22 05:34:34;;;;;;;4.18;3.83;;;;;;;32.73;58.43;100596.22;5008106;28;69464;-34
2022/06/22 05:37:12;;;;;;;4.05;3.75;;;;;;;32.97;57.96;100636.94;5009485;28;65346;-35
2022/06/22 05:39:44;;;;;;;4.10;3.80;;;;;;;32.94;58.66;100625.47;5010413;28;69616;-34
2022/06/22 05:42:16;;;;;;;4.18;3.88;;;;;;;33.03;58.48;100633.28;5007716;28;67001;-36
2022/06/22 05:44:47;;;;;;;3.95;3.67;;;;;;;32.97;58.28;100612.47;5010980;28;69785;-38
2022/06/22 05:47:31;;;;;;;3.55;3.30;;;;;;;32.69;57.93;100570.63;5009305;28;65941;-34
2022/06/22 05:50:28;;;;;;;4.20;3.90;;;;;;;32.99;58.15;100621.19;5019034;28;69748;-35
2022/06/22 05:53:05;;;;;;;4.15;3.80;;;;;;;33.10;58.08;100628.53;5001855;28;65623;-35
2022/06/22 05:56:03;;;;;;;3.75;3.55;;;;;;;33.13;57.88;100638.94;5007159;28;69855;-35
2022/06/22 05:59:03;;;;;;;3.78;3.38;;;;;;;32.84;58.13;100584.50;5019066;28;65631;-36
2022/06/22 06:02:06;;;;;;;3.95;3.72;;;;;;;32.83;57.76;100596.44;5017958;28;70804;-34
2022/06/22 06:04:38;;;;;;;4.03;3.63;;;;;;;33.21;58.13;100635.81;5004918;28;66227;-35
2022/06/22 06:07:34;;;;;;;4.93;3.63;;;;;;;33.26;57.68;100622.31;5017703;28;70447;-34
2022/06/22 06:10:35;;;;;;;3.85;3.45;;;;;;;33.28;57.66;100625.63;5006552;28;66049;-36
2022/06/22 06:13:29;;;;;;;4.20;3.58;;;;;;;33.31;57.81;100621.59;5006944;28;69136;-35
2022/06/22 06:16:02;;;;;;;3.35;3.15;;;;;;;33.15;57.51;100576.97;5015798;28;65690;-35
2022/06/22 06:18:41;;;;;;;3.63;3.42;;;;;;;32.85;57.85;100515.53;5007162;28;70549;-34
2022/06/22 06:21:15;;;;;;;3.63;3.13;;;;;;;33.43;57.53;100588.91;5006100;28;65680;-36
2022/06/22 06:24:02;;;;;;;3.35;3.15;;;;;;;33.07;57.42;100526.59;5013631;28;69680;-34
2022/06/22 06:29:41;;;;;;;3.28;3.08;;;;;;;33.47;57.17;100562.88;5008333;28;70148;-35
2022/06/22 06:32:53;;;;;;;3.20;3.00;;;;;;;33.43;57.05;100561.72;5006787;28;65645;-35
2022/06/22 06:35:29;;;;;;;3.53;3.33;;;;;;;33.60;57.10;100568.03;5004944;28;69972;-35
2022/06/22 06:38:27;;;;;;;3.22;2.92;;;;;;;33.56;56.84;100556.81;5011341;28;65816;-35
2022/06/22 06:41:03;;;;;;;3.80;3.40;;;;;;;33.69;56.88;100555.66;5001352;28;69845;-34
2022/06/22 06:43:59;;;;;;;3.22;2.97;;;;;;;33.63;56.90;100551.22;5005958;28;65684;-35
2022/06/22 06:46:41;;;;;;;2.90;2.70;;;;;;;33.76;57.08;100534.56;5015005;28;70745;-34
2022/06/22 06:49:30;;;;;;;3.17;2.75;;;;;;;33.78;56.76;100521.53;5011197;28;65742;-36
2022/06/22 06:52:35;;;;;;;3.10;2.90;;;;;;;33.72;56.64;100517.09;5011719;28;70419;-34
2022/06/22 06:55:14;;;;;;;2.63;2.47;;;;;;;33.57;56.21;100465.16;5013060;28;65527;-35
2022/06/22 06:58:13;;;;;;;2.75;2.55;;;;;;;33.58;56.29;100469.56;5014441;28;70123;-34
2022/06/22 07:00:45;;;;;;;3.55;3.25;;;;;;;33.98;56.50;100514.75;5009791;28;66248;-34
2022/06/22 07:03:25;;;;;;;3.20;2.70;;;;;;;34.03;56.42;100512.09;5004003;28;70407;-35
2022/06/22 07:05:56;;;;;;;2.97;2.78;;;;;;;34.07;56.27;100517.88;5000188;28;65418;-35
2022/06/22 07:08:52;;;;;;;2.75;2.55;;;;;;;33.72;55.70;100451.81;5010359;28;70105;-35
2022/06/22 07:11:31;;;;;;;3.70;2.70;;;;;;;34.10;55.94;100511.94;5006503;28;66076;-35
2022/06/22 07:14:08;;;;;;;2.90;2.70;;;;;;;33.85;55.60;100456.09;5010251;28;69872;-35
2022/06/22 07:16:40;;;;;;;2.95;2.65;;;;;;;34.14;55.90;100496.78;5012006;28;66428;-34
2022/06/22 07:19:20;;;;;;;4.90;2.80;;;;;;;34.12;55.79;100504.34;5013794;28;70264;-35
2022/06/22 07:21:55;;;;;;;3.17;2.97;;;;;;;34.15;56.08;100491.06;5007114;28;66794;-35
2022/06/22 07:24:31;;;;;;;3.22;2.97;;;;;;;34.06;56.03;100499.91;5000327;28;70067;-34
2022/06/22 07:27:26;;;;;;;2.92;2.72;;;;;;;34.07;55.91;100521.44;5012169;28;66558;-35
2022/06/22 07:30:06;;;;;;;3.45;3.25;;;;;;;34.17;56.40;100556.16;5009700;28;70039;-35
2022/06/22 07:32:54;;;;;;;3.13;2.83;;;;;;;34.07;56.88;100583.22;5017316;28;65865;-35
2022/06/22 07:35:34;;;;;;;3.00;2.55;;;;;;;34.15;57.47;100583.59;5009813;28;69227;-34
2022/06/22 07:38:22;;;;;;;3.30;3.00;;;;;;;34.14;57.74;100605.66;5008343;28;65429;-34
2022/06/22 07:43:48;;;;;;;3.47;2.67;;;;;;;34.12;57.98;100679.38;5011470;28;66931;-36
2022/06/22 07:46:29;;;;;;;4.53;2.60;;;;;;;34.08;57.90;100699.19;5014751;28;68963;-35
2022/06/22 07:49:26;;;;;;;3.08;2.88;;;;;;;33.82;58.09;100647.00;5029964;28;66341;-34
2022/06/22 07:52:01;;;;;;;3.17;2.90;;;;;;;33.88;58.07;100646.03;5022405;28;69356;-35
2022/06/22 07:54:47;;;;;;;3.10;2.90;;;;;;;34.01;58.56;100661.19;5015410;28;65847;-36
2022/06/22 07:57:58;;;;;;;2.75;2.38;;;;;;;33.88;58.65;100672.41;5016528;28;70319;-37
2022/06/22 08:00:31;;;;;;;5.95;3.22;;;;;;;33.41;58.22;100602.75;5024673;28;66167;-36
2022/06/22 08:03:18;;;;;;;4.50;2.80;;;;;;;33.93;58.72;100713.31;5017346;28;69581;-34
2022/06/22 08:05:51;;;;;;;4.53;2.78;;;;;;;33.88;58.63;100703.19;5016193;28;66388;-35
2022/06/22 08:08:56;;;;;;;4.38;2.85;;;;;;;33.85;58.95;100703.66;5015694;28;70487;-35
2022/06/22 08:11:35;;;;;;;3.80;2.28;;;;;;;33.79;58.76;100685.59;5025608;28;66002;-35
2022/06/22 08:14:42;;;;;;;2.85;2.53;;;;;;;33.60;59.28;100704.03;5019255;28;70696;-35
2022/06/22 08:17:39;;;;;;;4.47;2.50;;;;;;;33.70;58.72;100708.81;5001119;28;66541;-35
2022/06/22 08:20:16;;;;;;;3.38;2.80;;;;;;;33.66;58.73;100705.78;5019400;28;70646;-35
2022/06/22 08:22:49;;;;;;;3.97;2.63;;;;;;;33.64;59.15;100698.91;4999983;28;64961;-34
2022/06/22 08:25:44;;;;;;;4.53;2.13;;;;;;;33.20;59.43;100606.97;5015678;28;69511;-37
2022/06/22 08:28:19;;;;;;;2.75;2.50;;;;;;;33.46;59.10;100627.31;5010056;28;66511;-35
2022/06/22 08:30:54;;;;;;;3.15;2.20;;;;;;;33.52;59.13;100614.66;5021072;28;70801;-35
2022/06/22 08:33:39;;;;;;;2.88;2.30;;;;;;;33.48;59.71;100616.19;5014654;28;67041;-34
2022/06/22 08:36:21;;;;;;;2.60;2.40;;;;;;;33.05;59.57;100560.50;5015052;28;70583;-34
2022/06/22 08:39:17;;;;;;;5.93;2.17;;;;;;;33.04;59.87;100577.84;5013103;28;65474;-35
2022/06/22 08:42:21;;;;;;;2.53;2.22;;;;;;;33.34;59.89;100634.69;5012856;28;69533;-35
2022/06/22 08:45:34;;;;;;;3.25;2.15;;;;;;;33.09;60.61;100644.00;5015703;28;66370;-35
2022/06/22 08:48:39;;;;;;;2.60;2.03;;;;;;;33.01;60.42;100638.94;5049460;28;69557;-36
2022/06/22 08:51:29;;;;;;;2.75;2.50;;;;;;;33.21;60.23;100660.28;5015870;28;65591;-35
2022/06/22 08:54:24;;;;;;;2.33;2.13;;;;;;;33.10;60.50;100644.84;5011399;28;69577;-35
2022/06/22 08:56:55;;;;;;;2.33;2.10;;;;;;;33.10;60.54;100639.41;5015176;28;67295;-35
2022/06/22 08:59:51;;;;;;;2.90;2.17;;;;;;;33.01;60.98;100641.66;5017729;28;70144;-35
2022/06/22 09:02:50;;;;;;;2.17;1.98;;;;;;;32.83;61.34;100629.03;5006060;28;66151;-36
2022/06/22 09:05:45;;;;;;;2.83;2.28;;;;;;;32.92;60.92;100649.31;5010862;28;69554;-36
2022/06/22 09:09:03;;;;;;;2.40;2.20;;;;;;;32.77;61.20;100668.03;5013957;28;65837;-37
2022/06/22 09:11:47;;;;;;;2.25;2.05;;;;;;;32.78;60.66;100658.81;5000556;28;69947;-35
2022/06/22 09:14:49;;;;;;;2.20;1.83;;;;;;;32.88;61.00;100699.78;5014017;28;66249;-35
2022/06/22 09:17:37;;;;;;;2.80;1.85;;;;;;;32.61;61.25;100666.03;5012736;28;70146;-34
2022/06/22 09:20:33;;;;;;;3.70;2.28;;;;;;;32.86;61.24;100706.53;5016793;28;66113;-36
2022/06/22 09:23:44;;;;;;;3.08;2.10;;;;;;;32.55;61.42;100664.28;5017290;28;69601;-36
2022/06/22 09:26:46;;;;;;;2.30;2.10;;;;;;;32.38;61.45;100637.81;5012515;28;66368;-36
2022/06/22 09:29:26;;;;;;;1.90;1.80;;;;;;;32.78;61.25;100690.59;5016691;28;69724;-36
2022/06/22 09:32:18;;;;;;;2.30;2.00;;;;;;;32.70;61.23;100689.06;5013814;28;66862;-36
2022/06/22 09:35:12;;;;;;;4.53;2.40;;;;;;;32.67;61.51;100700.38;5015590;28;69472;-35
2022/06/22 09:37:51;;;;;;;2.03;1.80;;;;;;;32.75;61.05;100697.31;5011057;28;66548;-36
2022/06/22 09:40:45;;;;;;;2.42;2.22;;;;;;;32.66;61.49;100694.13;5005284;28;69992;-37
2022/06/22 09:43:47;;;;;;;2.22;2.00;;;;;;;32.63;61.60;100693.78;5004868;28;66512;-36
2022/06/22 09:46:31;;;;;;;3.03;2.45;;;;;;;32.67;61.60;100694.97;5015201;28;69491;-37
2022/06/22 09:49:25;;;;;;;2.50;2.40;;;;;;;32.56;61.72;100687.66;5011231;28;65677;-35
2022/06/22 09:52:15;;;;;;;2.47;2.35;;;;;;;32.62;61.82;100684.78;5016491;28;70014;-36
2022/06/22 09:58:41;;;;;;;3.38;3.08;;;;;;;32.22;62.06;100654.78;5017540;28;70527;-36
2022/06/22 10:01:29;;;;;;;2.95;2.75;;;;;;;32.58;61.85;100707.25;5017481;28;66318;-35
2022/06/22 10:04:28;;;;;;;3.10;2.65;;;;;;;32.49;61.88;100704.88;5017656;28;70319;-36
2022/06/22 10:07:04;;;;;;;2.85;2.65;;;;;;;32.58;61.92;100712.69;5013531;28;66258;-35
2022/06/22 10:10:02;;;;;;;2.75;2.55;;;;;;;32.48;62.13;100713.25;5012738;28;70657;-35
2022/06/22 10:12:53;;;;;;;2.58;2.38;;;;;;;32.57;61.61;100716.44;5011824;28;66614;-35
2022/06/22 10:15:33;;;;;;;3.10;2.90;;;;;;;32.55;61.95;100718.59;5002596;28;70097;-35
2022/06/22 10:18:16;;;;;;;3.20;2.97;;;;;;;32.47;62.00;100712.44;5015297;28;66070;-35
2022/06/22 10:21:01;;;;;;;2.78;2.58;;;;;;;32.56;62.08;100714.81;5019790;28;69248;-39
2022/06/22 10:24:03;;;;;;;2.80;2.60;;;;;;;32.34;61.98;100695.50;5016151;28;66440;-37
2022/06/22 10:26:43;;;;;;;3.20;3.00;;;;;;;32.46;61.99;100720.84;5016369;28;70370;-35
2022/06/22 10:29:34;;;;;;;3.55;2.95;;;;;;;32.30;62.13;100700.59;5017173;28;65921;-36
2022/06/22 10:32:10;;;;;;;3.00;2.80;;;;;;;32.51;62.33;100733.69;5013231;28;69979;-35
2022/06/22 10:34:57;;;;;;;3.00;2.80;;;;;;;32.51;62.09;100744.53;5006331;28;66617;-36
2022/06/22 10:37:42;;;;;;;3.28;2.50;;;;;;;32.48;61.85;100745.84;5008816;28;70132;-36
2022/06/22 10:47:13;;;;;;;3.22;2.90;;;;;;;32.39;62.42;100753.47;5016702;28;66101;-35
2022/06/22 10:50:10;;;;;;;4.57;4.18;;;;;;;32.20;65.80;100757.31;5013222;28;70147;-34
2022/06/22 10:53:27;;;;;;;7.13;4.72;;;;;;;31.68;67.28;100702.75;5015023;28;65619;-36
2022/06/22 10:56:35;;;;;;;5.03;4.53;;;;;;;31.76;68.64;100756.66;5009817;28;69262;-37
2022/06/22 10:59:38;;;;;;;4.72;3.92;;;;;;;31.61;69.70;100757.06;5012209;28;66537;-35
2022/06/22 11:03:05;;;;;;;4.43;4.03;;;;;;;31.52;70.36;100751.16;5008591;28;69829;-38
2022/06/22 11:05:45;;;;;;;4.40;4.00;;;;;;;31.58;70.08;100752.94;5014343;28;66178;-37
2022/06/22 11:08:25;;;;;;;4.38;3.97;;;;;;;31.50;71.29;100755.97;5010233;28;70103;-36
2022/06/22 11:11:10;;;;;;;4.63;3.92;;;;;;;31.51;72.06;100763.06;5011634;28;65550;-34
2022/06/22 11:13:47;;;;;;;4.80;4.40;;;;;;;31.46;71.51;100764.78;5014611;28;69187;-38
2022/06/22 11:16:47;;;;;;;4.75;4.25;;;;;;;31.41;71.66;100768.16;5015210;28;66609;-35
2022/06/22 11:19:30;;;;;;;5.40;4.68;;;;;;;31.32;71.83;100780.34;5010975;28;70325;-35
2022/06/22 11:22:16;;;;;;;6.03;5.53;;;;;;;31.35;72.36;100785.31;5025715;28;65569;-37
2022/06/22 11:25:08;;;;;;;5.13;4.00;;;;;;;31.34;71.52;100789.91;5008700;28;70416;-39
2022/06/22 11:31:13;;;;;;;5.38;3.85;;;;;;;31.63;68.97;100786.69;5003487;28;70559;-38
2022/06/22 11:34:15;;;;;;;5.65;3.60;;;;;;;31.69;69.24;100792.03;5014342;28;66528;-36
2022/06/22 11:37:04;;;;;;;12.40;4.50;;;;;;;31.76;69.12;100797.34;5007349;28;69360;-35
2022/06/22 11:40:17;;;;;;;6.22;4.13;;;;;;;31.77;69.05;100786.28;5016479;28;66300;-37
2022/06/22 11:43:02;;;;;;;4.38;3.72;;;;;;;31.91;68.81;100786.97;5013758;28;69161;-37
2022/06/22 11:45:58;;;;;;;5.13;4.72;;;;;;;31.98;68.82;100790.44;5019973;28;64975;-37
2022/06/22 11:48:47;;;;;;;5.50;5.00;;;;;;;31.94;69.59;100794.66;5017303;28;70266;-38
2022/06/22 11:51:32;;;;;;;8.80;6.40;;;;;;;31.99;69.09;100792.06;5018130;28;65660;-37
2022/06/22 11:54:50;;;;;;;11.40;6.15;;;;;;;32.01;69.73;100799.97;5011499;28;70152;-36
2022/06/22 11:57:50;;;;;;;6.95;4.82;;;;;;;32.09;69.63;100801.53;5013876;28;66481;-37
2022/06/22 12:00:56;;;;;;;9.27;5.30;;;;;;;32.10;69.13;100797.78;5016125;28;69878;-37
2022/06/22 12:04:07;;;;;;;6.15;5.20;;;;;;;32.14;68.87;100798.97;5030828;28;65549;-38
2022/06/22 12:06:47;;;;;;;5.53;5.03;;;;;;;32.16;68.39;100796.84;5009924;28;70286;-37
2022/06/22 12:09:27;;;;;;;5.75;5.25;;;;;;;32.12;68.22;100801.06;5016128;28;66683;-37
2022/06/22 12:12:35;;;;;;;6.07;5.00;;;;;;;32.07;68.71;100800.94;5012305;28;69581;-37
2022/06/22 12:15:06;;;;;;;7.05;5.15;;;;;;;32.13;67.99;100797.31;5019039;28;65986;-36
2022/06/22 12:17:55;;;;;;;6.38;5.63;;;;;;;32.13;68.32;100802.75;5018677;28;71598;-37
2022/06/22 12:20:52;;;;;;;11.35;6.78;;;;;;;32.13;68.05;100813.59;5008699;28;66027;-36
2022/06/22 12:24:07;;;;;;;13.98;8.10;;;;;;;31.67;68.47;100758.06;5017153;28;70249;-36
2022/06/22 12:26:59;;;;;;;17.80;8.40;;;;;;;32.12;67.98;100822.78;5015086;28;66345;-35
2022/06/22 12:29:48;;;;;;;9.80;7.10;;;;;;;31.90;67.68;100815.13;5016577;28;69204;-36
2022/06/22 12:33:03;;;;;;;10.90;7.18;;;;;;;31.60;67.58;100777.13;5015574;28;66341;-35
2022/06/22 12:35:51;;;;;;;8.88;7.05;;;;;;;31.66;67.60;100783.53;5017588;28;69512;-38
2022/06/22 12:38:25;;;;;;;6.65;6.00;;;;;;;32.05;67.36;100844.59;5016728;28;66641;-35
2022/06/22 12:41:35;;;;;;;9.90;5.82;;;;;;;31.86;67.63;100830.19;5020162;28;69485;-36
2022/06/22 12:44:14;;;;;;;17.63;5.63;;;;;;;31.91;67.98;100862.06;5016287;28;66120;-36
2022/06/22 12:47:14;;;;;;;16.83;6.00;;;;;;;31.57;69.46;100862.47;5015598;28;69493;-36
2022/06/22 12:49:53;;;;;;;14.13;5.85;;;;;;;31.52;69.71;100856.88;5017651;28;66231;-37
2022/06/22 12:52:31;;;;;;;14.73;6.25;;;;;;;31.43;69.76;100876.38;5013697;28;69299;-39
2022/06/22 12:55:08;;;;;;;12.98;5.25;;;;;;;31.40;70.37;100891.22;5011914;28;66031;-39
2022/06/22 12:57:48;;;;;;;15.15;5.88;;;;;;;31.04;70.64;100844.00;5014759;28;70018;-40
2022/06/22 13:00:21;;;;;;;16.70;6.03;;;;;;;30.91;71.40;100844.09;5017123;28;65664;-41
2022/06/22 13:02:58;;;;;;;8.23;6.28;;;;;;;30.93;71.36;100853.66;5011985;28;70379;-36
2022/06/22 13:05:35;;;;;;;9.18;6.40;;;;;;;31.23;72.01;100919.88;5015438;28;67211;-38
2022/06/22 13:08:12;;;;;;;7.43;5.93;;;;;;;31.22;71.75;100924.47;5003522;28;69935;-37
2022/06/22 13:11:01;;;;;;;9.85;6.80;;;;;;;30.99;71.43;100889.06;5000709;28;66183;-37
2022/06/22 13:13:56;;;;;;;6.72;6.20;;;;;;;31.19;71.33;100926.81;5018485;28;69195;-38